This is the latest recevied weather packets stored in our database for station/object AA4XD. If no packets are shown the sender has not sent any weather packets the latest 1 day(s).
| Time | Temp. | Humidity | Pressure | Rain* | Wind** | Luminosity | Snow |
|---|---|---|---|---|---|---|---|
| 1778076842 | 27.78° C | 64% | 1015.9 hPa | 0 mm | - | 562 W/m² | - |
| 1778075023 | 26.67° C | 69% | 1015.7 hPa | 0 mm | - | 469 W/m² | - |
| 1778074417 | 26.11° C | 71% | 1015.5 hPa | 0 mm | - | 349 W/m² | - |
| 1778073811 | 25.56° C | 70% | 1015.8 hPa | 0 mm | - | 325 W/m² | - |
| 1778073205 | 25° C | 71% | 1015.9 hPa | 0 mm | - | 278 W/m² | - |
| 1778072902 | 25° C | 72% | 1015.8 hPa | 0 mm | - | 260 W/m² | - |
| 1778071693 | 23.33° C | 74% | 1015.5 hPa | 0 mm | - | 228 W/m² | - |
| 1778071389 | 22.78° C | 76% | 1015.5 hPa | 0 mm | - | 204 W/m² | - |
| 1778071087 | 22.22° C | 76% | 1015.7 hPa | 0 mm | - | 192 W/m² | - |
| 1778070482 | 21.67° C | 79% | 1015.4 hPa | 0 mm | - | 155 W/m² | - |
| 1778070179 | 21.67° C | 77% | 1015.5 hPa | 0 mm | - | 134 W/m² | - |
| 1778069574 | 21.11° C | 79% | 1015.3 hPa | 0 mm | - | 125 W/m² | - |
| 1778069271 | 20.56° C | 80% | 1015.3 hPa | 0 mm | - | 115 W/m² | - |
| 1778068969 | 20° C | 82% | 1015.3 hPa | 0 mm | - | 114 W/m² | - |
| 1778066246 | 17.78° C | 88% | 1014.8 hPa | 0 mm | - | 31 W/m² | - |
| 1778064430 | 17.22° C | 88% | 1014.7 hPa | 0 mm | - | 3 W/m² | - |
| 1778064127 | 17.22° C | 88% | 1014.7 hPa | 0 mm | - | 1 W/m² | - |
| 1778063219 | 17.22° C | 88% | 1014.7 hPa | 0 mm | - | 0 W/m² | - |
| 1778062310 | 17.78° C | 87% | 1014.6 hPa | 0 mm | - | 0 W/m² | - |
| 1778062008 | 17.78° C | 86% | 1014.6 hPa | 0 mm | - | 0 W/m² | - |
| 1778061706 | 17.78° C | 86% | 1014.5 hPa | 0 mm | - | 0 W/m² | - |
| 1778061404 | 17.78° C | 86% | 1014.2 hPa | 0 mm | - | 0 W/m² | - |
| 1778060798 | 17.78° C | 85% | 1014.5 hPa | 0 mm | - | 0 W/m² | - |
| 1778060496 | 17.78° C | 85% | 1014.3 hPa | 0 mm | - | 0 W/m² | - |
| 1778060194 | 17.78° C | 86% | 1014.5 hPa | 0 mm | - | 0 W/m² | - |
* Rain latest hour (hover to see other rain measurements)
** Current wind speed in m/s (hover to see current wind gust speed)